createdAt,value
2018-07-28T00:00:19.489Z,0
2018-07-28T00:01:21.543Z,0
2018-07-28T00:02:23.591Z,0
2018-07-28T00:03:25.630Z,0
2018-07-28T00:04:27.689Z,0
2018-07-28T00:05:30.125Z,0
2018-07-28T00:06:32.770Z,0
2018-07-28T00:07:34.812Z,0
2018-07-28T00:08:36.884Z,0
2018-07-28T00:09:39.205Z,0
2018-07-28T00:10:41.539Z,0
2018-07-28T00:11:43.582Z,0
2018-07-28T00:12:45.619Z,0
2018-07-28T00:13:47.673Z,0
2018-07-28T00:14:50.015Z,0
2018-07-28T00:15:52.050Z,0
2018-07-28T00:16:54.101Z,0
2018-07-28T00:17:56.149Z,0
2018-07-28T00:18:58.584Z,0
2018-07-28T00:20:00.634Z,0
2018-07-28T00:21:03.464Z,0
2018-07-28T00:22:05.505Z,0
2018-07-28T00:23:07.936Z,0
2018-07-28T00:24:10.273Z,0
2018-07-28T00:25:12.601Z,0
2018-07-28T00:26:14.639Z,0
2018-07-28T00:27:16.686Z,0
2018-07-28T00:28:18.725Z,0
2018-07-28T00:29:21.170Z,0
2018-07-28T00:30:23.215Z,0
2018-07-28T00:31:25.549Z,0
2018-07-28T00:32:27.885Z,0
2018-07-28T00:33:30.228Z,0
2018-07-28T00:34:32.270Z,0
2018-07-28T00:35:34.314Z,0
2018-07-28T00:36:36.362Z,0
2018-07-28T00:37:38.680Z,0
2018-07-28T00:38:40.728Z,0
2018-07-28T00:39:42.771Z,0
2018-07-28T00:40:45.201Z,0
2018-07-28T00:41:47.237Z,0
2018-07-28T00:42:49.285Z,0
2018-07-28T00:43:51.618Z,0
2018-07-28T00:44:53.674Z,0
2018-07-28T00:45:56.016Z,0
2018-07-28T00:46:58.060Z,0
2018-07-28T00:48:00.492Z,0
2018-07-28T00:49:02.540Z,0
2018-07-28T00:50:04.584Z,0
2018-07-28T00:51:06.625Z,0
2018-07-28T00:52:08.671Z,0
2018-07-28T00:53:10.711Z,0
2018-07-28T00:54:12.762Z,0
2018-07-28T00:55:15.099Z,0
2018-07-28T00:56:17.144Z,0
2018-07-28T00:57:19.187Z,0
2018-07-28T00:58:21.510Z,0
2018-07-28T00:59:23.557Z,0
2018-07-28T01:00:25.612Z,0
2018-07-28T01:01:27.652Z,0
2018-07-28T01:02:29.710Z,0
2018-07-28T01:03:31.756Z,0
2018-07-28T01:04:33.803Z,0
2018-07-28T01:05:35.844Z,0
2018-07-28T01:06:37.906Z,0
2018-07-28T01:07:39.937Z,0
2018-07-28T01:08:42.269Z,0
2018-07-28T01:09:44.607Z,0
2018-07-28T01:10:46.924Z,0
2018-07-28T01:11:49.258Z,0
2018-07-28T01:12:51.304Z,0
2018-07-28T01:13:53.353Z,0
2018-07-28T01:14:55.384Z,0
2018-07-28T01:15:57.720Z,0
2018-07-28T01:17:00.061Z,0
2018-07-28T01:18:02.105Z,0
2018-07-28T01:19:04.164Z,0
2018-07-28T01:20:06.595Z,0
2018-07-28T01:21:08.642Z,0
2018-07-28T01:22:10.687Z,0
2018-07-28T01:23:13.015Z,0
2018-07-28T01:24:15.344Z,0
2018-07-28T01:25:17.388Z,0
2018-07-28T01:26:19.812Z,0
2018-07-28T01:27:22.243Z,0
2018-07-28T01:28:24.577Z,0
2018-07-28T01:29:26.625Z,0
2018-07-28T01:30:28.660Z,0
2018-07-28T01:31:30.719Z,0
2018-07-28T01:32:32.761Z,0
2018-07-28T01:33:34.803Z,0
2018-07-28T01:34:36.846Z,0
2018-07-28T01:35:39.590Z,0
2018-07-28T01:36:41.636Z,0
2018-07-28T01:37:44.066Z,0
2018-07-28T01:38:46.395Z,0
2018-07-28T01:39:48.449Z,0
2018-07-28T01:40:50.876Z,0
2018-07-28T01:41:52.921Z,0
2018-07-28T01:42:54.973Z,0
2018-07-28T01:43:57.009Z,0
2018-07-28T01:44:59.057Z,0
2018-07-28T01:46:01.489Z,0
2018-07-28T01:47:03.534Z,0
2018-07-28T01:48:05.956Z,0
2018-07-28T01:49:08.062Z,0
2018-07-28T01:50:10.106Z,0
2018-07-28T01:51:12.151Z,0
2018-07-28T01:52:14.206Z,0
2018-07-28T01:53:16.243Z,0
2018-07-28T01:54:18.290Z,0
2018-07-28T01:55:20.341Z,0
2018-07-28T01:56:22.385Z,0
2018-07-28T01:57:24.425Z,0
2018-07-28T01:58:26.470Z,0
2018-07-28T01:59:28.799Z,0
2018-07-28T02:00:30.847Z,0
2018-07-28T02:01:32.897Z,0
2018-07-28T02:02:34.943Z,0
2018-07-28T02:03:36.982Z,0
2018-07-28T02:04:39.034Z,0
2018-07-28T02:05:41.078Z,0
2018-07-28T02:06:43.119Z,0
2018-07-28T02:07:45.168Z,0
2018-07-28T02:08:47.201Z,0
2018-07-28T02:09:49.244Z,0
2018-07-28T02:10:51.290Z,0
2018-07-28T02:11:53.336Z,0
2018-07-28T02:12:55.662Z,0
2018-07-28T02:13:57.702Z,0
2018-07-28T02:15:00.053Z,0
2018-07-28T02:16:02.098Z,0
2018-07-28T02:17:04.132Z,0
2018-07-28T02:18:06.182Z,0
2018-07-28T02:19:08.224Z,0
2018-07-28T02:20:10.271Z,0
2018-07-28T02:21:12.308Z,0
2018-07-28T02:22:14.358Z,0
2018-07-28T02:23:16.400Z,0
2018-07-28T02:24:18.449Z,0
2018-07-28T02:25:20.829Z,0
2018-07-28T02:26:22.869Z,0
2018-07-28T02:27:25.302Z,0
2018-07-28T02:28:27.352Z,0
2018-07-28T02:29:29.398Z,0
2018-07-28T02:30:31.445Z,0
2018-07-28T02:31:33.785Z,0
2018-07-28T02:32:36.212Z,0
2018-07-28T02:33:38.540Z,0
2018-07-28T02:34:40.896Z,0
2018-07-28T02:35:42.940Z,0
2018-07-28T02:36:45.576Z,0
2018-07-28T02:37:48.324Z,0
2018-07-28T02:38:50.370Z,0
2018-07-28T02:39:52.798Z,0
2018-07-28T02:40:55.143Z,0
2018-07-28T02:41:57.182Z,0
2018-07-28T02:42:59.227Z,0
2018-07-28T02:44:01.270Z,0
2018-07-28T02:45:03.320Z,0
2018-07-28T02:46:06.506Z,0
2018-07-28T02:47:09.541Z,0
2018-07-28T02:48:11.587Z,0
2018-07-28T02:49:14.207Z,0
2018-07-28T02:50:16.935Z,0
2018-07-28T02:51:19.257Z,0
2018-07-28T02:52:21.305Z,0
2018-07-28T02:53:23.946Z,0
2018-07-28T02:54:25.998Z,0
2018-07-28T02:55:28.038Z,0
2018-07-28T02:56:30.476Z,0
2018-07-28T02:57:32.906Z,0
2018-07-28T02:58:35.225Z,0
2018-07-28T02:59:37.568Z,0
2018-07-28T03:00:40.206Z,0
2018-07-28T03:01:42.246Z,0
2018-07-28T03:02:44.287Z,0
2018-07-28T03:03:46.620Z,0
2018-07-28T03:04:49.243Z,0
2018-07-28T03:05:51.292Z,0
2018-07-28T03:06:53.919Z,0
2018-07-28T03:07:56.349Z,0
2018-07-28T03:08:59.170Z,0
2018-07-28T03:10:01.221Z,0
2018-07-28T03:11:03.260Z,0
2018-07-28T03:12:05.594Z,0
2018-07-28T03:13:08.031Z,0
2018-07-28T03:14:10.354Z,0
2018-07-28T03:15:12.694Z,0
2018-07-28T03:16:15.128Z,0
2018-07-28T03:17:17.739Z,0
2018-07-28T03:18:19.777Z,1
2018-07-28T03:19:21.836Z,1
2018-07-28T03:20:23.878Z,1
2018-07-28T03:21:26.504Z,1
2018-07-28T03:22:29.233Z,1
2018-07-28T03:23:31.562Z,1
2018-07-28T03:24:33.611Z,1
2018-07-28T03:25:35.957Z,1
2018-07-28T03:26:38.004Z,1
2018-07-28T03:27:40.319Z,2
2018-07-28T03:28:42.650Z,2
2018-07-28T03:29:45.082Z,2
2018-07-28T03:30:47.124Z,2
2018-07-28T03:31:49.446Z,2
2018-07-28T03:32:51.492Z,2
2018-07-28T03:33:53.536Z,3
2018-07-28T03:34:55.576Z,3
2018-07-28T03:35:57.618Z,3
2018-07-28T03:36:59.664Z,3
2018-07-28T03:38:01.712Z,3
2018-07-28T03:39:03.765Z,3
2018-07-28T03:40:06.105Z,4
2018-07-28T03:41:08.146Z,4
2018-07-28T03:42:10.476Z,4
2018-07-28T03:43:12.526Z,4
2018-07-28T03:44:14.559Z,4
2018-07-28T03:45:16.607Z,4
2018-07-28T03:46:18.943Z,5
2018-07-28T03:47:21.014Z,5
2018-07-28T03:48:23.042Z,5
2018-07-28T03:49:25.083Z,5
2018-07-28T03:50:27.125Z,6
2018-07-28T03:51:29.163Z,6
2018-07-28T03:52:31.219Z,6
2018-07-28T03:53:33.660Z,6
2018-07-28T03:54:35.699Z,6
2018-07-28T03:55:37.749Z,7
2018-07-28T03:56:40.158Z,7
2018-07-28T03:57:42.213Z,7
2018-07-28T03:58:44.250Z,7
2018-07-28T03:59:46.296Z,8
2018-07-28T04:00:48.614Z,8
2018-07-28T04:01:50.661Z,8
2018-07-28T04:02:52.708Z,8
2018-07-28T04:03:54.752Z,9
2018-07-28T04:04:56.806Z,9
2018-07-28T04:05:59.236Z,9
2018-07-28T04:07:01.279Z,9
2018-07-28T04:08:03.333Z,10
2018-07-28T04:09:05.381Z,10
2018-07-28T04:10:07.423Z,10
2018-07-28T04:11:09.770Z,10
2018-07-28T04:12:11.810Z,10
2018-07-28T04:13:13.855Z,11
2018-07-28T04:14:16.258Z,11
2018-07-28T04:15:18.271Z,11
2018-07-28T04:16:20.593Z,11
2018-07-28T04:17:22.658Z,12
2018-07-28T04:18:24.701Z,12
2018-07-28T04:19:26.743Z,12
2018-07-28T04:20:28.793Z,12
2018-07-28T04:21:31.113Z,12
2018-07-28T04:22:33.157Z,13
2018-07-28T04:23:35.201Z,13
2018-07-28T04:24:37.249Z,13
2018-07-28T04:25:39.280Z,13
2018-07-28T04:26:41.334Z,14
2018-07-28T04:27:43.384Z,14
2018-07-28T04:28:45.704Z,14
2018-07-28T04:29:47.759Z,14
2018-07-28T04:30:50.360Z,14
2018-07-28T04:31:52.404Z,15
2018-07-28T04:32:55.020Z,15
2018-07-28T04:33:57.642Z,15
2018-07-28T04:34:59.681Z,15
2018-07-28T04:36:01.727Z,15
2018-07-28T04:37:04.135Z,15
2018-07-28T04:38:06.154Z,15
2018-07-28T04:39:08.205Z,15
2018-07-28T04:40:10.558Z,15
2018-07-28T04:41:12.603Z,16
2018-07-28T04:42:14.646Z,16
2018-07-28T04:43:16.696Z,16
2018-07-28T04:44:18.739Z,16
2018-07-28T04:45:20.777Z,16
2018-07-28T04:46:22.821Z,17
2018-07-28T04:47:24.873Z,17
2018-07-28T04:48:27.206Z,17
2018-07-28T04:49:29.252Z,17
2018-07-28T04:50:31.596Z,17
2018-07-28T04:51:33.639Z,18
2018-07-28T04:52:35.969Z,18
2018-07-28T04:53:38.407Z,18
2018-07-28T04:54:40.443Z,18
2018-07-28T04:55:42.488Z,19
2018-07-28T04:56:44.531Z,19
2018-07-28T04:57:46.578Z,19
2018-07-28T04:58:48.616Z,19
2018-07-28T04:59:50.661Z,19
2018-07-28T05:00:52.705Z,20
2018-07-28T05:01:54.744Z,20
2018-07-28T05:02:57.083Z,20
2018-07-28T05:03:59.124Z,20
2018-07-28T05:05:01.170Z,20
2018-07-28T05:06:03.501Z,21
2018-07-28T05:07:05.844Z,21
2018-07-28T05:08:07.884Z,21
2018-07-28T05:09:09.927Z,21
2018-07-28T05:10:11.975Z,21
2018-07-28T05:11:14.009Z,22
2018-07-28T05:12:16.059Z,22
2018-07-28T05:13:18.102Z,22
2018-07-28T05:14:20.142Z,22
2018-07-28T05:15:22.189Z,22
2018-07-28T05:16:24.237Z,23
2018-07-28T05:17:26.281Z,23
2018-07-28T05:18:28.617Z,23
2018-07-28T05:19:30.659Z,23
2018-07-28T05:20:32.701Z,23
2018-07-28T05:21:34.744Z,24
2018-07-28T05:22:37.175Z,24
2018-07-28T05:23:39.284Z,24
2018-07-28T05:24:41.248Z,24
2018-07-28T05:25:43.293Z,24
2018-07-28T05:26:45.332Z,24
2018-07-28T05:27:47.388Z,25
2018-07-28T05:28:49.865Z,25
2018-07-28T05:29:51.910Z,25
2018-07-28T05:30:53.951Z,25
2018-07-28T05:31:56.003Z,26
2018-07-28T05:32:58.321Z,26
2018-07-28T05:34:00.658Z,26
2018-07-28T05:35:02.997Z,26
2018-07-28T05:36:05.315Z,26
2018-07-28T05:37:07.372Z,27
2018-07-28T05:38:09.410Z,27
2018-07-28T05:39:11.751Z,26
2018-07-28T05:40:14.070Z,26
2018-07-28T05:41:16.119Z,26
2018-07-28T05:42:18.164Z,27
2018-07-28T05:43:20.212Z,27
2018-07-28T05:44:22.269Z,27
2018-07-28T05:45:25.026Z,27
2018-07-28T05:46:27.071Z,27
2018-07-28T05:47:29.119Z,28
2018-07-28T05:48:31.163Z,28
2018-07-28T05:49:33.202Z,28
2018-07-28T05:50:35.247Z,28
2018-07-28T05:51:37.672Z,29
2018-07-28T05:52:39.715Z,29
2018-07-28T05:53:41.768Z,29
2018-07-28T05:54:43.815Z,29
2018-07-28T05:55:45.852Z,29
2018-07-28T05:56:47.912Z,30
2018-07-28T05:57:49.959Z,30
2018-07-28T05:58:52.001Z,30
2018-07-28T05:59:54.045Z,30
2018-07-28T06:00:56.396Z,30
2018-07-28T06:01:58.440Z,31
2018-07-28T06:03:00.485Z,31
2018-07-28T06:04:02.913Z,31
2018-07-28T06:05:05.352Z,31
2018-07-28T06:06:07.696Z,31
2018-07-28T06:07:09.740Z,32
2018-07-28T06:08:11.792Z,32
2018-07-28T06:09:14.113Z,32
2018-07-28T06:10:16.450Z,32
2018-07-28T06:11:18.492Z,32
2018-07-28T06:12:20.537Z,32
2018-07-28T06:13:22.571Z,32
2018-07-28T06:14:25.020Z,33
2018-07-28T06:15:27.055Z,33
2018-07-28T06:16:29.096Z,33
2018-07-28T06:17:31.151Z,33
2018-07-28T06:18:33.192Z,33
2018-07-28T06:19:35.243Z,33
2018-07-28T06:20:37.580Z,33
2018-07-28T06:21:39.628Z,34
2018-07-28T06:22:41.669Z,34
2018-07-28T06:23:44.008Z,34
2018-07-28T06:24:46.334Z,34
2018-07-28T06:25:48.382Z,34
2018-07-28T06:26:50.816Z,35
2018-07-28T06:27:53.261Z,35
2018-07-28T06:28:55.601Z,35
2018-07-28T06:29:57.662Z,35
2018-07-28T06:30:59.992Z,35
2018-07-28T06:32:02.717Z,36
2018-07-28T06:33:04.770Z,36
2018-07-28T06:34:06.804Z,36
2018-07-28T06:35:08.857Z,36
2018-07-28T06:36:11.194Z,36
2018-07-28T06:37:13.246Z,37
2018-07-28T06:38:15.292Z,37
2018-07-28T06:39:17.332Z,37
2018-07-28T06:40:19.380Z,37
2018-07-28T06:41:21.433Z,37
2018-07-28T06:42:23.755Z,37
2018-07-28T06:43:25.801Z,38
2018-07-28T06:44:27.849Z,38
2018-07-28T06:45:29.892Z,38
2018-07-28T06:46:32.316Z,38
2018-07-28T06:47:35.041Z,39
2018-07-28T06:48:37.089Z,39
2018-07-28T06:49:39.138Z,39
2018-07-28T06:50:41.197Z,39
2018-07-28T06:51:43.242Z,39
2018-07-28T06:52:46.222Z,39
2018-07-28T06:53:49.311Z,40
2018-07-28T06:54:51.770Z,40
2018-07-28T06:55:53.817Z,40
2018-07-28T06:56:55.881Z,40
2018-07-28T06:57:58.037Z,40
2018-07-28T06:59:00.088Z,40
2018-07-28T07:00:02.363Z,41
2018-07-28T07:01:05.608Z,41
2018-07-28T07:02:07.937Z,41
2018-07-28T07:03:09.994Z,41
2018-07-28T07:04:12.046Z,41
2018-07-28T07:05:14.093Z,41
2018-07-28T07:06:16.150Z,42
2018-07-28T07:07:18.575Z,42
2018-07-28T07:08:20.624Z,42
2018-07-28T07:09:22.673Z,42
2018-07-28T07:10:24.728Z,43
2018-07-28T07:11:26.768Z,43
2018-07-28T07:12:29.112Z,43
2018-07-28T07:13:31.165Z,43
2018-07-28T07:14:33.591Z,43
2018-07-28T07:15:35.925Z,43
2018-07-28T07:16:37.979Z,43
2018-07-28T07:17:40.029Z,44
2018-07-28T07:18:42.077Z,44
2018-07-28T07:19:44.502Z,44
2018-07-28T07:20:46.555Z,44
2018-07-28T07:21:48.893Z,45
2018-07-28T07:22:50.943Z,45
2018-07-28T07:23:53.291Z,45
2018-07-28T07:24:55.342Z,46
2018-07-28T07:25:57.691Z,46
2018-07-28T07:26:59.748Z,46
2018-07-28T07:28:01.798Z,46
2018-07-28T07:29:03.840Z,46
2018-07-28T07:30:05.888Z,47
2018-07-28T07:31:07.937Z,47
2018-07-28T07:32:09.988Z,47
2018-07-28T07:33:12.041Z,48
2018-07-28T07:34:14.482Z,48
2018-07-28T07:35:16.527Z,48
2018-07-28T07:36:18.675Z,49
2018-07-28T07:37:20.636Z,49
2018-07-28T07:38:22.689Z,49
2018-07-28T07:39:24.743Z,50
2018-07-28T07:40:26.782Z,50
2018-07-28T07:41:28.834Z,50
2018-07-28T07:42:30.885Z,50
2018-07-28T07:43:32.944Z,51
2018-07-28T07:44:34.983Z,51
2018-07-28T07:45:37.045Z,51
2018-07-28T07:46:39.095Z,51
2018-07-28T07:47:41.214Z,52
2018-07-28T07:48:43.203Z,52
2018-07-28T07:49:45.248Z,52
2018-07-28T07:50:47.305Z,52
2018-07-28T07:51:49.353Z,53
2018-07-28T07:52:51.416Z,53
2018-07-28T07:53:54.214Z,53
2018-07-28T07:54:56.167Z,53
2018-07-28T07:55:58.604Z,53
2018-07-28T07:57:00.641Z,53
2018-07-28T07:58:02.983Z,53
2018-07-28T07:59:05.316Z,53
2018-07-28T08:00:07.746Z,53
2018-07-28T08:01:09.797Z,54
2018-07-28T08:02:11.856Z,54
2018-07-28T08:03:14.292Z,54
2018-07-28T08:04:16.350Z,54
2018-07-28T08:05:18.800Z,55
2018-07-28T08:06:20.892Z,55
2018-07-28T08:07:23.256Z,56
2018-07-28T08:08:25.307Z,56
2018-07-28T08:09:27.637Z,56
2018-07-28T08:10:29.689Z,56
2018-07-28T08:11:31.742Z,56
2018-07-28T08:12:34.425Z,57
2018-07-28T08:13:36.457Z,57
2018-07-28T08:14:38.508Z,57
2018-07-28T08:15:40.558Z,57
2018-07-28T08:16:42.602Z,57
2018-07-28T08:17:44.663Z,59
2018-07-28T08:18:46.712Z,58
2018-07-28T08:19:48.764Z,59
2018-07-28T08:20:51.520Z,59
2018-07-28T08:21:53.556Z,59
2018-07-28T08:22:55.617Z,61
2018-07-28T08:23:57.950Z,61
2018-07-28T08:25:00.003Z,62
2018-07-28T08:26:02.045Z,79
2018-07-28T08:27:04.100Z,107
2018-07-28T08:28:06.149Z,126
2018-07-28T08:29:08.198Z,130
2018-07-28T08:30:10.257Z,140
2018-07-28T08:31:12.309Z,139
2018-07-28T08:32:14.361Z,135
2018-07-28T08:33:16.776Z,131
2018-07-28T08:34:19.189Z,120
2018-07-28T08:35:21.246Z,121
2018-07-28T08:36:23.299Z,152
2018-07-28T08:37:25.357Z,222
2018-07-28T08:38:27.699Z,246
2018-07-28T08:39:29.748Z,240
2018-07-28T08:40:31.798Z,246
2018-07-28T08:41:34.239Z,248
2018-07-28T08:42:36.279Z,254
2018-07-28T08:43:38.624Z,262
2018-07-28T08:44:40.679Z,274
2018-07-28T08:45:42.727Z,287
2018-07-28T08:46:45.092Z,309
2018-07-28T08:47:47.140Z,299
2018-07-28T08:48:49.312Z,290
2018-07-28T08:49:51.242Z,288
2018-07-28T08:50:53.303Z,276
2018-07-28T08:51:55.347Z,287
2018-07-28T08:52:57.398Z,295
2018-07-28T08:53:59.453Z,290
2018-07-28T08:55:01.799Z,275
2018-07-28T08:56:03.855Z,270
2018-07-28T08:57:05.905Z,277
2018-07-28T08:58:08.042Z,296
2018-07-28T08:59:10.479Z,308
2018-07-28T09:00:13.030Z,303
2018-07-28T09:01:15.086Z,305
2018-07-28T09:02:17.138Z,296
2018-07-28T09:03:19.204Z,317
2018-07-28T09:04:21.252Z,331
2018-07-28T09:05:23.596Z,321
2018-07-28T09:06:25.658Z,305
2018-07-28T09:07:27.707Z,307
2018-07-28T09:08:29.758Z,338
2018-07-28T09:09:32.204Z,349
2018-07-28T09:10:34.275Z,331
2018-07-28T09:11:36.632Z,314
2018-07-28T09:12:38.677Z,326
2018-07-28T09:13:40.732Z,320
2018-07-28T09:14:43.076Z,330
2018-07-28T09:15:45.116Z,328
2018-07-28T09:16:47.171Z,343
2018-07-28T09:17:49.252Z,333
2018-07-28T09:18:51.561Z,321
2018-07-28T09:19:53.632Z,331
2018-07-28T09:20:55.991Z,346
2018-07-28T09:21:58.346Z,343
2018-07-28T09:23:00.686Z,347
2018-07-28T09:24:02.752Z,347
2018-07-28T09:25:05.104Z,349
2018-07-28T09:26:07.545Z,358
2018-07-28T09:27:09.602Z,349
2018-07-28T09:28:11.645Z,352
2018-07-28T09:29:13.707Z,346
2018-07-28T09:30:15.760Z,346
2018-07-28T09:31:18.105Z,357
2018-07-28T09:32:20.154Z,353
2018-07-28T09:33:22.490Z,367
2018-07-28T09:34:24.842Z,365
2018-07-28T09:35:26.900Z,355
2018-07-28T09:36:28.962Z,346
2018-07-28T09:37:31.015Z,342
2018-07-28T09:38:33.371Z,346
2018-07-28T09:39:35.428Z,333
2018-07-28T09:40:37.866Z,337
2018-07-28T09:41:39.916Z,328
2018-07-28T09:42:41.973Z,353
2018-07-28T09:43:44.021Z,351
2018-07-28T09:44:46.076Z,346
2018-07-28T09:45:48.429Z,340
2018-07-28T09:46:51.252Z,357
2018-07-28T09:47:53.263Z,382
2018-07-28T09:48:55.304Z,388
2018-07-28T09:49:57.358Z,427
2018-07-28T09:50:59.413Z,408
2018-07-28T09:52:01.468Z,372
2018-07-28T09:53:03.842Z,380
2018-07-28T09:54:05.897Z,375
2018-07-28T09:55:07.955Z,279
2018-07-28T09:56:10.066Z,295
2018-07-28T09:57:12.444Z,386
2018-07-28T09:58:14.497Z,403
2018-07-28T09:59:16.557Z,420
2018-07-28T10:00:19.007Z,432
2018-07-28T10:01:21.054Z,413
2018-07-28T10:02:23.115Z,392
2018-07-28T10:03:25.176Z,415
2018-07-28T10:04:27.234Z,412
2018-07-28T10:05:29.290Z,437
2018-07-28T10:06:31.623Z,425
2018-07-28T10:07:33.684Z,390
2018-07-28T10:08:35.740Z,389
2018-07-28T10:09:38.101Z,391
2018-07-28T10:10:40.155Z,387
2018-07-28T10:11:42.511Z,391
2018-07-28T10:12:44.865Z,399
2018-07-28T10:13:47.213Z,411
2018-07-28T10:14:49.266Z,409
2018-07-28T10:15:51.323Z,445
2018-07-28T10:16:53.379Z,424
2018-07-28T10:17:55.714Z,432
2018-07-28T10:18:57.784Z,395
2018-07-28T10:19:59.835Z,391
2018-07-28T10:21:02.183Z,406
2018-07-28T10:22:04.251Z,419
2018-07-28T10:23:07.360Z,417
2018-07-28T10:24:09.418Z,408
2018-07-28T10:25:11.485Z,427
2018-07-28T10:26:13.535Z,403
2018-07-28T10:27:15.593Z,408
2018-07-28T10:28:18.037Z,158
2018-07-28T10:29:20.102Z,131
2018-07-28T10:30:22.149Z,335
2018-07-28T10:31:24.217Z,150
2018-07-28T10:32:26.279Z,416
2018-07-28T10:33:28.335Z,390
2018-07-28T10:34:30.413Z,112
2018-07-28T10:35:32.478Z,415
2018-07-28T10:36:35.037Z,440
2018-07-28T10:37:37.107Z,424
2018-07-28T10:38:40.924Z,438
2018-07-28T10:39:42.993Z,421
2018-07-28T10:40:45.054Z,460
2018-07-28T10:41:47.116Z,444
2018-07-28T10:42:49.166Z,415
2018-07-28T10:43:51.229Z,399
2018-07-28T10:44:53.289Z,419
2018-07-28T10:45:55.348Z,421
2018-07-28T10:46:57.719Z,443
2018-07-28T10:47:59.783Z,434
2018-07-28T10:49:01.850Z,411
2018-07-28T10:50:03.927Z,438
2018-07-28T10:51:06.378Z,457
2018-07-28T10:52:08.434Z,453
2018-07-28T10:53:10.497Z,439
2018-07-28T10:54:12.559Z,424
2018-07-28T10:55:14.612Z,466
2018-07-28T10:56:16.966Z,453
2018-07-28T10:57:19.026Z,423
2018-07-28T10:58:21.368Z,389
2018-07-28T10:59:23.435Z,427
2018-07-28T11:00:25.990Z,457
2018-07-28T11:01:27.991Z,439
2018-07-28T11:02:30.048Z,450
2018-07-28T11:03:32.124Z,450
2018-07-28T11:04:34.491Z,431
2018-07-28T11:05:36.548Z,393
2018-07-28T11:06:38.602Z,381
2018-07-28T11:07:40.674Z,375
2018-07-28T11:08:42.729Z,390
2018-07-28T11:09:44.794Z,432
2018-07-28T11:10:46.858Z,453
2018-07-28T11:11:48.935Z,460
2018-07-28T11:12:50.990Z,468
2018-07-28T11:13:53.055Z,478
2018-07-28T11:14:55.117Z,509
2018-07-28T11:15:57.168Z,464
2018-07-28T11:16:59.234Z,483
2018-07-28T11:18:01.294Z,507
2018-07-28T11:19:03.920Z,453
2018-07-28T11:20:06.278Z,453
2018-07-28T11:21:08.348Z,439
2018-07-28T11:22:10.406Z,420
2018-07-28T11:23:12.483Z,410
2018-07-28T11:24:14.820Z,453
2018-07-28T11:25:16.876Z,459
2018-07-28T11:26:19.426Z,442
2018-07-28T11:27:21.768Z,466
2018-07-28T11:28:23.826Z,460
2018-07-28T11:29:25.887Z,431
2018-07-28T11:30:27.944Z,429
2018-07-28T11:31:30.002Z,435
2018-07-28T11:32:32.074Z,410
2018-07-28T11:33:34.134Z,331
2018-07-28T11:34:36.480Z,371
2018-07-28T11:35:38.541Z,382
2018-07-28T11:36:40.888Z,391
2018-07-28T11:37:42.959Z,413
2018-07-28T11:38:45.343Z,429
2018-07-28T11:39:47.423Z,482
2018-07-28T11:40:49.780Z,494
2018-07-28T11:41:51.870Z,475
2018-07-28T11:42:54.322Z,496
2018-07-28T11:43:56.421Z,477
2018-07-28T11:44:58.488Z,448
2018-07-28T11:46:01.030Z,502
2018-07-28T11:47:02.997Z,485
2018-07-28T11:48:05.444Z,452
2018-07-28T11:49:07.502Z,441
2018-07-28T11:50:09.567Z,443
2018-07-28T11:51:11.924Z,486
2018-07-28T11:52:13.985Z,517
2018-07-28T11:53:16.047Z,478
2018-07-28T11:54:18.111Z,480
2018-07-28T11:55:20.171Z,483
2018-07-28T11:56:22.529Z,455
2018-07-28T11:57:24.594Z,456
2018-07-28T11:58:26.718Z,468
2018-07-28T11:59:28.709Z,448
2018-07-28T12:00:30.776Z,462
2018-07-28T12:01:32.867Z,500
2018-07-28T12:02:35.622Z,457
2018-07-28T12:03:37.684Z,484
2018-07-28T12:04:39.738Z,492
2018-07-28T12:05:41.819Z,469
2018-07-28T12:06:44.184Z,447
2018-07-28T12:07:46.245Z,444
2018-07-28T12:08:48.594Z,457
2018-07-28T12:09:50.666Z,456
2018-07-28T12:10:52.726Z,459
2018-07-28T12:11:54.785Z,423
2018-07-28T12:12:56.856Z,435
2018-07-28T12:13:58.912Z,477
2018-07-28T12:15:00.978Z,462
2018-07-28T12:16:03.430Z,481
2018-07-28T12:17:05.777Z,475
2018-07-28T12:18:07.849Z,456
2018-07-28T12:19:09.895Z,412
2018-07-28T12:20:11.957Z,422
2018-07-28T12:21:14.306Z,442
2018-07-28T12:22:16.352Z,448
2018-07-28T12:23:18.424Z,433
2018-07-28T12:24:20.477Z,427
2018-07-28T12:25:22.533Z,417
2018-07-28T12:26:24.594Z,434
2018-07-28T12:27:26.658Z,421
2018-07-28T12:28:29.015Z,431
2018-07-28T12:29:31.081Z,455
2018-07-28T12:30:33.141Z,450
2018-07-28T12:31:35.197Z,433
2018-07-28T12:32:37.256Z,415
2018-07-28T12:33:39.709Z,415
2018-07-28T12:34:42.879Z,417
2018-07-28T12:35:45.104Z,365
2018-07-28T12:36:47.553Z,323
2018-07-28T12:37:49.611Z,398
2018-07-28T12:38:51.680Z,411
2018-07-28T12:39:53.745Z,423
2018-07-28T12:40:56.158Z,456
2018-07-28T12:41:58.207Z,419
2018-07-28T12:43:00.278Z,405
2018-07-28T12:44:02.623Z,404
2018-07-28T12:45:04.685Z,111
2018-07-28T12:46:06.749Z,394
2018-07-28T12:47:08.800Z,413
2018-07-28T12:48:10.873Z,418
2018-07-28T12:49:12.936Z,407
2018-07-28T12:50:15.001Z,427
2018-07-28T12:51:17.055Z,423
2018-07-28T12:52:19.118Z,412
2018-07-28T12:53:21.179Z,429
2018-07-28T12:54:23.244Z,409
2018-07-28T12:55:25.413Z,398
2018-07-28T12:56:27.371Z,396
2018-07-28T12:57:29.431Z,420
2018-07-28T12:58:31.501Z,419
2018-07-28T12:59:33.564Z,416
2018-07-28T13:00:35.646Z,426
2018-07-28T13:01:38.020Z,428
2018-07-28T13:02:40.104Z,436
2018-07-28T13:03:42.474Z,416
2018-07-28T13:04:44.559Z,402
2018-07-28T13:05:46.642Z,389
2018-07-28T13:06:48.726Z,422
2018-07-28T13:07:50.808Z,442
2018-07-28T13:08:53.182Z,405
2018-07-28T13:09:55.305Z,411
2018-07-28T13:10:57.351Z,401
2018-07-28T13:11:59.431Z,376
2018-07-28T13:13:01.513Z,388
2018-07-28T13:14:03.886Z,401
2018-07-28T13:15:05.979Z,403
2018-07-28T13:16:08.055Z,374
2018-07-28T13:17:10.650Z,358
2018-07-28T13:18:12.635Z,363
2018-07-28T13:19:14.719Z,106
2018-07-28T13:20:16.804Z,104
2018-07-28T13:21:18.887Z,247
2018-07-28T13:22:20.976Z,352
2018-07-28T13:23:23.064Z,361
2018-07-28T13:24:25.151Z,360
2018-07-28T13:25:27.233Z,368
2018-07-28T13:26:29.317Z,374
2018-07-28T13:27:31.692Z,362
2018-07-28T13:28:33.776Z,374
2018-07-28T13:29:35.857Z,376
2018-07-28T13:30:37.945Z,361
2018-07-28T13:31:40.024Z,362
2018-07-28T13:32:42.109Z,361
2018-07-28T13:33:44.479Z,368
2018-07-28T13:34:46.573Z,350
2018-07-28T13:35:48.948Z,356
2018-07-28T13:36:51.031Z,371
2018-07-28T13:37:53.115Z,361
2018-07-28T13:38:55.197Z,110
2018-07-28T13:39:57.283Z,109
2018-07-28T13:40:59.653Z,339
2018-07-28T13:42:01.779Z,92
2018-07-28T13:43:03.826Z,85
2018-07-28T13:44:05.916Z,76
2018-07-28T13:45:08.000Z,72
2018-07-28T13:46:10.085Z,72
2018-07-28T13:47:12.170Z,75
2018-07-28T13:48:14.256Z,82
2018-07-28T13:49:16.339Z,317
2018-07-28T13:50:18.425Z,131
2018-07-28T13:51:20.509Z,95
2018-07-28T13:52:22.592Z,342
2018-07-28T13:53:25.502Z,349
2018-07-28T13:54:27.542Z,330
2018-07-28T13:55:30.012Z,349
2018-07-28T13:56:32.378Z,369
2018-07-28T13:57:34.457Z,362
2018-07-28T13:58:36.541Z,365
2018-07-28T13:59:38.621Z,386
2018-07-28T14:00:40.994Z,387
2018-07-28T14:01:43.078Z,356
2018-07-28T14:02:45.173Z,371
2018-07-28T14:03:47.253Z,362
2018-07-28T14:04:49.334Z,347
2018-07-28T14:05:51.419Z,358
2018-07-28T14:06:53.505Z,365
2018-07-28T14:07:55.571Z,365
2018-07-28T14:08:57.640Z,341
2018-07-28T14:09:59.981Z,360
2018-07-28T14:11:02.433Z,248
2018-07-28T14:12:04.498Z,348
2018-07-28T14:13:06.648Z,367
2018-07-28T14:14:09.775Z,322
2018-07-28T14:15:11.868Z,102
2018-07-28T14:16:13.910Z,165
2018-07-28T14:17:16.308Z,93
2018-07-28T14:18:18.835Z,90
2018-07-28T14:19:20.832Z,83
2018-07-28T14:20:22.897Z,82
2018-07-28T14:21:24.966Z,231
2018-07-28T14:22:27.021Z,87
2018-07-28T14:23:29.174Z,81
2018-07-28T14:24:31.155Z,79
2018-07-28T14:25:33.672Z,74
2018-07-28T14:26:36.401Z,65
2018-07-28T14:27:38.462Z,56
2018-07-28T14:28:40.521Z,51
2018-07-28T14:29:42.584Z,47
2018-07-28T14:30:44.657Z,43
2018-07-28T14:31:46.714Z,41
2018-07-28T14:32:48.774Z,42
2018-07-28T14:33:50.839Z,44
2018-07-28T14:34:52.891Z,43
2018-07-28T14:35:54.959Z,41
2018-07-28T14:36:57.298Z,40
2018-07-28T14:37:59.352Z,40
2018-07-28T14:39:01.415Z,39
2018-07-28T14:40:03.483Z,38
2018-07-28T14:41:05.540Z,37
2018-07-28T14:42:07.609Z,37
2018-07-28T14:43:09.668Z,40